Time;durP1;ratioP1;P1;durP2;ratioP2;P2;SDS_P1;SDS_P2;PMS_P1;PMS_P2;Temp;Humidity;BMP_temperature;BMP_pressure;BME280_temperature;BME280_humidity;BME280_pressure;Samples;Min_cycle;Max_cycle;Signal;HPM_P1;HPM_P2
2021/07/03 00:01:39;;;;;;;11.63;7.97;;;11.90;99.90;;;;;;4933903;29;20114;-81
2021/07/03 00:04:05;;;;;;;13.73;8.15;;;11.90;99.90;;;;;;4934446;29;20076;-82
2021/07/03 00:06:30;;;;;;;14.25;8.07;;;11.90;99.90;;;;;;4935734;29;20028;-83
2021/07/03 00:08:56;;;;;;;13.20;7.88;;;11.90;99.90;;;;;;4949789;28;20512;-83
2021/07/03 00:11:22;;;;;;;14.02;8.70;;;11.80;99.90;;;;;;4938901;29;20039;-82
2021/07/03 00:13:48;;;;;;;12.05;7.65;;;11.90;99.90;;;;;;4915848;29;20492;-82
2021/07/03 00:16:13;;;;;;;13.57;8.13;;;11.90;99.90;;;;;;4919832;29;20470;-83
2021/07/03 00:18:39;;;;;;;11.00;7.63;;;11.90;99.90;;;;;;4916998;29;20450;-82
2021/07/03 00:21:05;;;;;;;12.02;8.00;;;11.80;99.90;;;;;;4928578;29;20039;-83
2021/07/03 00:23:32;;;;;;;15.25;8.02;;;11.80;99.90;;;;;;4938628;28;20035;-83
2021/07/03 00:25:58;;;;;;;16.13;9.23;;;11.90;99.90;;;;;;4938938;29;20039;-82
2021/07/03 00:28:23;;;;;;;12.55;8.52;;;11.80;99.90;;;;;;4966931;28;20058;-83
2021/07/03 00:30:49;;;;;;;12.82;7.97;;;11.70;99.90;;;;;;4936865;29;20051;-83
2021/07/03 00:33:15;;;;;;;11.68;7.88;;;11.70;99.90;;;;;;4939106;29;20039;-83
2021/07/03 00:35:41;;;;;;;11.85;7.22;;;11.70;99.90;;;;;;4955089;29;20039;-83
2021/07/03 00:38:07;;;;;;;11.93;7.68;;;11.70;99.90;;;;;;4923535;29;20047;-81
2021/07/03 00:40:32;;;;;;;12.60;7.28;;;11.70;99.90;;;;;;4945696;29;20043;-81
2021/07/03 00:42:59;;;;;;;12.70;7.00;;;11.70;99.90;;;;;;4920694;29;20031;-83
2021/07/03 00:45:25;;;;;;;15.02;8.70;;;11.70;99.90;;;;;;4920429;29;20031;-82
2021/07/03 00:47:52;;;;;;;15.27;7.53;;;11.70;99.90;;;;;;4944968;28;20031;-82
2021/07/03 00:50:20;;;;;;;12.82;7.90;;;11.60;99.90;;;;;;4942433;28;20036;-83
2021/07/03 00:52:46;;;;;;;13.43;8.18;;;11.60;99.90;;;;;;4964698;28;20038;-83
2021/07/03 00:55:18;;;;;;;12.80;8.40;;;11.60;99.90;;;;;;4954566;29;20485;-82
2021/07/03 00:57:46;;;;;;;14.07;8.18;;;11.60;99.90;;;;;;4939191;28;20060;-83
2021/07/03 01:00:15;;;;;;;19.25;9.50;;;11.60;99.90;;;;;;4934184;29;20042;-83
2021/07/03 01:02:41;;;;;;;14.73;8.77;;;11.50;99.90;;;;;;4951342;29;20031;-83
2021/07/03 01:05:08;;;;;;;13.70;8.40;;;11.40;99.90;;;;;;4969509;28;20473;-83
2021/07/03 01:07:36;;;;;;;16.67;9.73;;;11.40;99.90;;;;;;4919983;29;20032;-82
2021/07/03 01:10:15;;;;;;;15.63;9.43;;;11.40;99.90;;;;;;4928112;29;20036;-83
2021/07/03 01:12:41;;;;;;;17.88;9.38;;;11.40;99.90;;;;;;4943121;28;20055;-83
2021/07/03 01:15:08;;;;;;;14.90;8.73;;;11.40;99.90;;;;;;4921860;29;20040;-82
2021/07/03 01:17:35;;;;;;;17.05;9.10;;;11.40;99.90;;;;;;4964812;28;20114;-83
2021/07/03 01:20:03;;;;;;;13.50;8.65;;;11.40;99.90;;;;;;4913886;29;20117;-82
2021/07/03 01:22:30;;;;;;;12.10;8.15;;;11.40;99.90;;;;;;4935147;29;20127;-83
2021/07/03 01:24:56;;;;;;;13.98;8.35;;;11.40;99.90;;;;;;4953853;29;20023;-83
2021/07/03 01:27:22;;;;;;;14.30;8.07;;;11.40;99.90;;;;;;4953405;28;20027;-83
2021/07/03 01:29:48;;;;;;;11.20;7.32;;;11.40;99.90;;;;;;4958825;28;20031;-83
2021/07/03 01:32:15;;;;;;;14.90;8.07;;;11.40;99.90;;;;;;4952585;29;20118;-81
2021/07/03 01:34:43;;;;;;;14.45;7.65;;;11.40;99.90;;;;;;4915593;29;20032;-82
2021/07/03 01:37:18;;;;;;;11.65;7.43;;;11.30;99.90;;;;;;4949266;28;20059;-83
2021/07/03 01:39:50;;;;;;;12.52;8.05;;;11.30;99.90;;;;;;4951960;29;20121;-83
2021/07/03 01:42:16;;;;;;;14.90;8.57;;;11.30;99.90;;;;;;4937683;29;20502;-83
2021/07/03 01:44:44;;;;;;;12.65;8.00;;;11.30;99.90;;;;;;4952649;29;20035;-83
2021/07/03 01:47:10;;;;;;;11.90;8.13;;;11.20;99.90;;;;;;4919122;29;20134;-83
2021/07/03 01:49:45;;;;;;;12.13;7.95;;;11.20;99.90;;;;;;4912610;29;20111;-83
2021/07/03 01:52:18;;;;;;;13.13;8.40;;;11.20;99.90;;;;;;4953102;29;20032;-83
2021/07/03 01:54:45;;;;;;;12.65;8.55;;;11.20;99.90;;;;;;4937307;29;20433;-83
2021/07/03 01:57:12;;;;;;;13.07;7.90;;;11.20;99.90;;;;;;4967099;28;20086;-83
2021/07/03 01:59:55;;;;;;;11.50;7.90;;;11.20;99.90;;;;;;4939766;29;20402;-83
2021/07/03 02:02:21;;;;;;;10.50;7.28;;;11.20;99.90;;;;;;4934063;29;20045;-83
2021/07/03 02:04:49;;;;;;;8.80;6.57;;;11.10;99.90;;;;;;4921674;29;20122;-81
2021/07/03 02:07:16;;;;;;;11.63;7.03;;;11.10;99.90;;;;;;4926711;28;20272;-83
2021/07/03 02:09:42;;;;;;;11.10;6.25;;;11.10;99.90;;;;;;4935341;29;20057;-83
2021/07/03 02:12:08;;;;;;;10.85;7.05;;;11.00;99.90;;;;;;4938160;28;20127;-82
2021/07/03 02:14:52;;;;;;;11.60;7.35;;;11.00;99.90;;;;;;4939461;29;20054;-83
2021/07/03 02:17:28;;;;;;;14.65;7.90;;;11.00;99.90;;;;;;4935538;28;20027;-83
2021/07/03 02:19:55;;;;;;;11.63;7.78;;;11.00;99.90;;;;;;4935632;28;20114;-82
2021/07/03 02:22:26;;;;;;;10.80;7.18;;;11.00;99.90;;;;;;4937714;29;20039;-83
2021/07/03 02:24:52;;;;;;;11.85;8.00;;;11.00;99.90;;;;;;4936687;28;20035;-83
2021/07/03 02:27:22;;;;;;;11.98;7.65;;;11.00;99.90;;;;;;4943618;28;20125;-84
2021/07/03 02:29:52;;;;;;;11.57;7.43;;;10.90;99.90;;;;;;4931914;29;20044;-82
2021/07/03 02:32:17;;;;;;;13.38;7.40;;;11.00;99.90;;;;;;4920136;29;20122;-83
2021/07/03 02:34:43;;;;;;;13.35;7.97;;;11.00;99.90;;;;;;4919096;29;20015;-83
2021/07/03 02:37:09;;;;;;;12.68;8.70;;;11.00;99.90;;;;;;4917173;29;20063;-83
2021/07/03 02:39:36;;;;;;;14.38;8.80;;;11.10;99.90;;;;;;4919344;29;20306;-83
2021/07/03 02:42:03;;;;;;;19.50;10.73;;;11.10;99.90;;;;;;4966056;28;20603;-83
2021/07/03 02:44:30;;;;;;;15.75;9.23;;;11.10;99.90;;;;;;4936303;29;20058;-83
2021/07/03 02:46:57;;;;;;;16.50;9.25;;;11.20;99.90;;;;;;4896963;29;20070;-83
2021/07/03 02:49:25;;;;;;;16.15;9.82;;;11.20;99.90;;;;;;4960647;28;20042;-83
2021/07/03 02:51:51;;;;;;;17.00;9.60;;;11.10;99.90;;;;;;4920628;29;20485;-82
2021/07/03 02:54:18;;;;;;;15.05;9.68;;;11.10;99.90;;;;;;4951967;29;20055;-83
2021/07/03 02:56:44;;;;;;;14.65;9.13;;;11.10;99.90;;;;;;4948740;28;20505;-83
2021/07/03 02:59:11;;;;;;;13.85;8.88;;;11.20;99.90;;;;;;4923276;29;20051;-83
2021/07/03 03:01:37;;;;;;;18.17;10.98;;;11.20;99.90;;;;;;4934206;29;20548;-82
2021/07/03 03:04:07;;;;;;;18.15;10.25;;;11.20;99.90;;;;;;4925606;29;20047;-83
2021/07/03 03:06:33;;;;;;;15.30;10.35;;;11.20;99.90;;;;;;4943270;28;20031;-83
2021/07/03 03:09:00;;;;;;;24.95;9.90;;;11.20;99.90;;;;;;4930409;29;20112;-83
2021/07/03 03:11:27;;;;;;;30.88;9.75;;;11.20;99.90;;;;;;4934568;29;20039;-82
2021/07/03 03:13:53;;;;;;;14.73;9.15;;;11.30;99.90;;;;;;4946583;29;20486;-82
2021/07/03 03:16:20;;;;;;;39.50;8.35;;;11.20;99.90;;;;;;4962316;28;20409;-83
2021/07/03 03:18:46;;;;;;;30.45;7.40;;;11.20;99.90;;;;;;4941358;28;20035;-83
2021/07/03 03:21:13;;;;;;;39.78;7.88;;;11.20;99.90;;;;;;4931154;29;20072;-82
2021/07/03 03:23:40;;;;;;;29.30;8.00;;;11.20;99.90;;;;;;4935667;29;20031;-82
2021/07/03 03:26:06;;;;;;;14.38;7.57;;;11.10;99.90;;;;;;4933454;29;20042;-83
2021/07/03 03:28:38;;;;;;;12.48;7.47;;;11.20;99.90;;;;;;4909651;29;20459;-82
2021/07/03 03:31:05;;;;;;;11.02;7.57;;;11.30;99.90;;;;;;4961006;28;20032;-82
2021/07/03 03:33:37;;;;;;;30.77;6.88;;;11.40;99.90;;;;;;4955836;28;20034;-83
2021/07/03 03:36:04;;;;;;;10.15;7.32;;;11.40;99.90;;;;;;4935340;29;20039;-82
2021/07/03 03:38:30;;;;;;;9.63;6.13;;;11.30;99.90;;;;;;4958102;28;20038;-81
2021/07/03 03:40:58;;;;;;;23.02;6.70;;;11.40;99.90;;;;;;4949392;29;20027;-83
2021/07/03 03:43:24;;;;;;;24.83;7.10;;;11.30;99.90;;;;;;4934356;29;20498;-83
2021/07/03 03:45:50;;;;;;;12.45;7.93;;;11.30;99.90;;;;;;4949625;29;20035;-83
2021/07/03 03:48:18;;;;;;;19.40;6.53;;;11.30;99.90;;;;;;4948764;28;20020;-82
2021/07/03 03:50:51;;;;;;;18.08;7.43;;;11.40;99.90;;;;;;4929470;29;20027;-82
2021/07/03 03:53:17;;;;;;;15.18;7.20;;;11.30;99.90;;;;;;4967041;28;20098;-82
2021/07/03 03:55:43;;;;;;;12.00;6.78;;;11.30;99.90;;;;;;4919526;29;20031;-82
2021/07/03 03:58:11;;;;;;;11.70;6.90;;;11.30;99.90;;;;;;4918545;28;20397;-82
2021/07/03 04:00:38;;;;;;;11.23;7.82;;;11.50;99.90;;;;;;4946572;28;20080;-83
2021/07/03 04:03:04;;;;;;;21.67;7.80;;;11.50;99.90;;;;;;4920542;29;20182;-83
2021/07/03 04:05:41;;;;;;;15.57;8.52;;;11.40;99.90;;;;;;4919842;29;20043;-82
2021/07/03 04:08:07;;;;;;;16.27;8.88;;;11.30;99.90;;;;;;4946019;28;20046;-81
2021/07/03 04:10:33;;;;;;;16.80;7.82;;;11.30;99.90;;;;;;4931546;29;20042;-83
2021/07/03 04:12:59;;;;;;;14.93;7.30;;;11.50;99.90;;;;;;4919021;29;20031;-83
2021/07/03 04:15:25;;;;;;;21.98;9.40;;;11.50;99.90;;;;;;4935237;29;20494;-82
2021/07/03 04:17:51;;;;;;;13.80;9.00;;;11.50;99.90;;;;;;4930490;29;20028;-83
2021/07/03 04:20:17;;;;;;;20.85;8.95;;;11.50;99.90;;;;;;4946680;23;20416;-79
2021/07/03 04:22:43;;;;;;;16.88;8.90;;;11.60;99.90;;;;;;4952178;29;20033;-79
2021/07/03 04:25:11;;;;;;;16.45;8.98;;;11.80;99.90;;;;;;4950257;28;20074;-80
2021/07/03 04:27:38;;;;;;;19.98;9.55;;;11.80;99.90;;;;;;4969836;28;20489;-81
2021/07/03 04:30:06;;;;;;;14.90;9.45;;;11.70;99.90;;;;;;4947365;28;20474;-82
2021/07/03 04:32:32;;;;;;;13.27;8.82;;;11.70;99.90;;;;;;4917890;29;20425;-82
2021/07/03 04:34:58;;;;;;;13.75;8.85;;;11.60;99.90;;;;;;4921976;29;20453;-81
2021/07/03 04:37:24;;;;;;;12.90;8.63;;;11.70;99.90;;;;;;4953543;29;20042;-80
2021/07/03 04:39:49;;;;;;;12.82;8.68;;;11.80;99.90;;;;;;4921799;29;20035;-82
2021/07/03 04:42:15;;;;;;;12.25;8.07;;;11.80;99.90;;;;;;4931611;28;20039;-82
2021/07/03 04:44:41;;;;;;;13.73;8.18;;;11.80;99.90;;;;;;4937875;29;20035;-80
2021/07/03 04:47:06;;;;;;;13.52;8.02;;;11.90;99.90;;;;;;4935952;29;20043;-81
2021/07/03 04:49:33;;;;;;;11.10;7.50;;;12.00;99.90;;;;;;4957076;28;20042;-81
2021/07/03 04:52:00;;;;;;;11.32;7.15;;;12.10;99.90;;;;;;4955695;29;20047;-83
2021/07/03 04:54:26;;;;;;;10.73;6.55;;;12.20;99.90;;;;;;4971335;28;20023;-81
2021/07/03 04:57:06;;;;;;;11.35;7.32;;;12.40;99.90;;;;;;4940431;29;20027;-83
2021/07/03 04:59:42;;;;;;;10.85;7.88;;;12.50;99.90;;;;;;4935578;28;20540;-81
2021/07/03 05:02:11;;;;;;;9.75;7.50;;;12.60;99.90;;;;;;4950894;28;20055;-83
2021/07/03 05:04:41;;;;;;;11.77;8.20;;;12.60;99.90;;;;;;4952604;28;20040;-81
2021/07/03 05:07:07;;;;;;;10.98;7.57;;;12.80;99.90;;;;;;4935367;29;20390;-83
2021/07/03 05:09:38;;;;;;;10.80;6.90;;;12.90;99.90;;;;;;4934689;28;20091;-80
2021/07/03 05:12:04;;;;;;;10.02;7.32;;;13.00;99.90;;;;;;4923661;29;20453;-80
2021/07/03 05:14:30;;;;;;;10.77;7.18;;;13.10;99.90;;;;;;4972486;28;20070;-81
2021/07/03 05:16:56;;;;;;;10.15;7.88;;;13.10;99.90;;;;;;4955909;28;20051;-80
2021/07/03 05:19:21;;;;;;;9.40;7.45;;;13.20;99.90;;;;;;4953009;28;20046;-81
2021/07/03 05:21:47;;;;;;;8.73;6.80;;;13.20;99.90;;;;;;4939590;29;20035;-80
2021/07/03 05:24:13;;;;;;;9.85;7.53;;;13.20;99.90;;;;;;4953491;28;20028;-81
2021/07/03 05:26:39;;;;;;;7.80;6.60;;;13.10;99.90;;;;;;4954881;29;20046;-81
2021/07/03 05:29:05;;;;;;;8.18;6.07;;;13.30;99.90;;;;;;4954264;28;20050;-80
2021/07/03 05:31:31;;;;;;;9.88;7.30;;;13.50;99.90;;;;;;4968482;28;20058;-81
2021/07/03 05:33:57;;;;;;;9.10;6.65;;;13.70;99.90;;;;;;4930761;29;20114;-80
2021/07/03 05:36:23;;;;;;;7.35;6.10;;;13.90;99.90;;;;;;4953327;28;20031;-80
2021/07/03 05:38:49;;;;;;;9.10;6.70;;;14.00;99.90;;;;;;4938247;29;20035;-80
2021/07/03 05:41:17;;;;;;;8.10;5.82;;;14.00;99.90;;;;;;4935347;29;20040;-81
2021/07/03 05:43:43;;;;;;;8.55;6.22;;;14.00;99.90;;;;;;4947890;29;20031;-80
2021/07/03 05:46:10;;;;;;;9.43;6.30;;;14.10;99.90;;;;;;4926386;28;20038;-80
2021/07/03 05:48:38;;;;;;;9.75;7.05;;;14.10;99.90;;;;;;4954234;29;20027;-81
2021/07/03 05:51:04;;;;;;;10.77;7.15;;;14.20;99.90;;;;;;4949214;29;20043;-80
2021/07/03 05:53:30;;;;;;;9.50;7.43;;;14.20;99.90;;;;;;4954750;29;20035;-79
2021/07/03 05:55:56;;;;;;;12.68;7.55;;;14.20;99.90;;;;;;4961091;28;20037;-80
2021/07/03 05:58:22;;;;;;;10.45;7.47;;;14.20;99.90;;;;;;4956874;28;20083;-80
2021/07/03 06:00:47;;;;;;;9.82;7.32;;;14.20;99.90;;;;;;4935489;28;20036;-80
2021/07/03 06:03:13;;;;;;;9.73;7.55;;;14.30;99.90;;;;;;4952241;29;20043;-80
2021/07/03 06:05:39;;;;;;;11.20;7.90;;;14.50;99.90;;;;;;4955992;28;20031;-80
2021/07/03 06:08:05;;;;;;;9.13;7.22;;;14.60;99.90;;;;;;4937007;29;20027;-80
2021/07/03 06:10:31;;;;;;;12.30;8.35;;;14.60;99.90;;;;;;4951974;28;20549;-80
2021/07/03 06:12:57;;;;;;;12.88;8.20;;;14.60;99.90;;;;;;4953275;28;20114;-80
2021/07/03 06:15:22;;;;;;;10.85;7.07;;;14.60;99.90;;;;;;4915935;29;20032;-79
2021/07/03 06:17:48;;;;;;;10.60;7.70;;;14.70;99.90;;;;;;4949519;28;20098;-80
2021/07/03 06:20:15;;;;;;;11.60;7.70;;;14.80;99.90;;;;;;4933362;29;20043;-80
2021/07/03 06:22:40;;;;;;;9.52;7.22;;;14.90;99.90;;;;;;4959101;28;20027;-80
2021/07/03 06:25:07;;;;;;;11.75;8.15;;;15.10;99.90;;;;;;4954367;28;20478;-80
2021/07/03 06:27:34;;;;;;;9.48;7.22;;;15.30;99.90;;;;;;4965571;28;20031;-80
2021/07/03 06:29:59;;;;;;;9.82;6.63;;;15.40;99.90;;;;;;4954834;28;20031;-80
2021/07/03 06:32:25;;;;;;;9.13;7.20;;;15.80;99.90;;;;;;4951447;28;20053;-80
2021/07/03 06:34:51;;;;;;;10.27;6.43;;;16.10;99.90;;;;;;4954249;28;20032;-80
2021/07/03 06:37:17;;;;;;;9.38;6.45;;;16.60;99.90;;;;;;4919856;29;20067;-79
2021/07/03 06:39:43;;;;;;;7.38;5.45;;;17.00;99.90;;;;;;4949965;29;20103;-81
2021/07/03 06:42:10;;;;;;;6.90;5.40;;;17.50;99.90;;;;;;4933220;29;20082;-80
2021/07/03 06:44:36;;;;;;;9.80;5.82;;;18.00;99.90;;;;;;4971746;28;20062;-80
2021/07/03 06:47:02;;;;;;;8.60;6.53;;;18.60;99.90;;;;;;4951914;29;20063;-79
2021/07/03 06:49:28;;;;;;;10.13;6.90;;;19.20;99.90;;;;;;4951931;28;20533;-79
2021/07/03 06:51:53;;;;;;;9.50;5.90;;;19.70;99.90;;;;;;4945556;28;20166;-80
2021/07/03 06:54:19;;;;;;;5.82;5.20;;;20.20;99.90;;;;;;4936228;28;20536;-79
2021/07/03 06:57:00;;;;;;;9.48;6.97;;;20.70;99.90;;;;;;4953760;28;20051;-79
2021/07/03 06:59:29;;;;;;;8.73;6.60;;;21.10;99.90;;;;;;4950051;28;20039;-80
2021/07/03 07:01:55;;;;;;;6.40;5.03;;;21.50;99.90;;;;;;4928653;29;20953;-79
2021/07/03 07:04:22;;;;;;;6.43;5.45;;;22.30;99.90;;;;;;4946101;29;20031;-79
2021/07/03 07:06:52;;;;;;;8.18;5.72;;;22.80;99.90;;;;;;4952479;29;20039;-79
2021/07/03 07:09:18;;;;;;;6.65;5.38;;;23.30;99.90;;;;;;4951189;29;20027;-79
2021/07/03 07:11:44;;;;;;;6.63;4.80;;;23.70;99.90;;;;;;4951118;28;20030;-79
2021/07/03 07:14:11;;;;;;;5.65;5.00;;;24.00;99.90;;;;;;4949999;29;20031;-79
2021/07/03 07:16:37;;;;;;;6.85;4.97;;;24.30;99.90;;;;;;4952847;28;20027;-80
2021/07/03 07:19:03;;;;;;;6.00;5.18;;;24.50;99.90;;;;;;4951144;28;20035;-80
2021/07/03 07:21:28;;;;;;;6.72;5.45;;;24.70;99.90;;;;;;4948278;29;20039;-80
2021/07/03 07:23:54;;;;;;;8.35;6.35;;;24.90;99.90;;;;;;4916211;29;20043;-80
2021/07/03 07:26:20;;;;;;;7.95;6.25;;;24.80;99.90;;;;;;4952474;28;20039;-80
2021/07/03 07:28:46;;;;;;;8.38;6.78;;;24.40;99.90;;;;;;4934508;29;20031;-80
2021/07/03 07:31:12;;;;;;;7.25;5.68;;;24.10;99.90;;;;;;4948570;28;20094;-80
2021/07/03 07:33:38;;;;;;;7.57;5.85;;;24.10;99.90;;;;;;4951416;29;20035;-80
2021/07/03 07:36:04;;;;;;;7.40;5.90;;;24.30;99.90;;;;;;4949568;28;20075;-80
2021/07/03 07:38:29;;;;;;;7.40;5.60;;;24.30;99.90;;;;;;4951643;28;20127;-80
2021/07/03 07:40:55;;;;;;;7.22;5.65;;;24.50;99.90;;;;;;4947258;28;20038;-80
2021/07/03 07:43:21;;;;;;;7.50;5.95;;;24.80;99.90;;;;;;4952738;28;20031;-81
2021/07/03 07:45:47;;;;;;;11.30;6.82;;;25.00;99.90;;;;;;4954560;28;20038;-80
2021/07/03 07:48:13;;;;;;;9.45;6.85;;;23.60;99.90;;;;;;4960156;28;20038;-80
2021/07/03 07:50:40;;;;;;;8.15;6.28;;;23.10;99.90;;;;;;4948776;28;20476;-80
2021/07/03 07:53:05;;;;;;;8.15;5.95;;;22.80;99.90;;;;;;4950738;28;20032;-80
2021/07/03 07:55:31;;;;;;;9.20;6.63;;;22.80;99.90;;;;;;4918651;29;20405;-80
2021/07/03 07:57:57;;;;;;;7.82;6.38;;;22.60;99.90;;;;;;4931806;28;20035;-80
2021/07/03 08:00:23;;;;;;;9.48;7.63;;;22.50;99.90;;;;;;4948610;28;20035;-79
2021/07/03 08:02:50;;;;;;;7.13;5.82;;;22.50;99.90;;;;;;4923580;29;20561;-80
2021/07/03 08:05:16;;;;;;;7.65;6.40;;;22.40;99.90;;;;;;4950716;28;20154;-80
2021/07/03 08:07:42;;;;;;;10.82;7.40;;;22.50;99.90;;;;;;4969593;28;20531;-80
2021/07/03 08:10:08;;;;;;;12.77;6.65;;;22.50;99.90;;;;;;4931890;29;20123;-81
2021/07/03 08:12:34;;;;;;;9.23;6.43;;;22.70;99.90;;;;;;4933833;29;20131;-80
2021/07/03 08:15:00;;;;;;;9.07;6.60;;;23.20;99.90;;;;;;4955601;28;20063;-81
2021/07/03 08:17:26;;;;;;;7.65;6.13;;;23.50;99.90;;;;;;4914060;29;20442;-81
2021/07/03 08:19:52;;;;;;;7.93;6.40;;;24.00;99.90;;;;;;4922277;29;20042;-81
2021/07/03 08:22:17;;;;;;;8.55;5.28;;;24.50;99.90;;;;;;4919322;29;20122;-81
2021/07/03 08:24:43;;;;;;;8.75;5.47;;;25.20;99.90;;;;;;4945175;28;20247;-81
2021/07/03 08:27:09;;;;;;;7.38;5.80;;;25.90;99.90;;;;;;4949880;28;20043;-81
2021/07/03 08:29:35;;;;;;;7.70;6.25;;;26.30;99.90;;;;;;4952891;28;20038;-81
2021/07/03 08:32:00;;;;;;;7.50;5.30;;;26.40;94.50;;;;;;4947817;28;20086;-81
2021/07/03 08:34:26;;;;;;;6.78;5.60;;;26.50;99.40;;;;;;4928611;29;20724;-81
2021/07/03 08:36:52;;;;;;;6.75;5.30;;;26.60;98.70;;;;;;4931006;29;20050;-80
2021/07/03 08:39:18;;;;;;;7.93;6.00;;;26.90;96.90;;;;;;4960892;28;20031;-80
2021/07/03 08:41:44;;;;;;;9.40;6.38;;;27.20;95.20;;;;;;4926000;29;20945;-80
2021/07/03 08:44:14;;;;;;;8.40;6.82;;;27.20;92.30;;;;;;4930548;29;20541;-81
2021/07/03 08:46:54;;;;;;;10.98;6.80;;;26.70;88.70;;;;;;4965131;29;20034;-81
2021/07/03 08:49:20;;;;;;;7.88;6.07;;;25.80;90.80;;;;;;4946965;28;20302;-81
2021/07/03 08:51:46;;;;;;;8.52;5.95;;;24.90;93.90;;;;;;4943702;29;20027;-81
2021/07/03 08:54:12;;;;;;;16.08;7.90;;;24.20;95.90;;;;;;4955735;29;20095;-80
2021/07/03 08:56:38;;;;;;;7.53;5.72;;;23.80;95.30;;;;;;4960653;28;20062;-80
2021/07/03 08:59:15;;;;;;;8.77;6.38;;;23.50;96.90;;;;;;4923466;28;20051;-82
2021/07/03 09:01:51;;;;;;;10.20;7.13;;;23.30;96.80;;;;;;4932514;28;20039;-81
2021/07/03 09:04:44;;;;;;;8.73;5.88;;;23.20;98.20;;;;;;4938428;28;20527;-81
2021/07/03 09:07:19;;;;;;;7.57;5.85;;;23.20;99.90;;;;;;4968309;28;20031;-81
2021/07/03 09:09:52;;;;;;;8.18;6.00;;;23.50;99.90;;;;;;4937756;29;20068;-81
2021/07/03 09:12:32;;;;;;;9.00;6.22;;;23.60;97.20;;;;;;4952663;28;20031;-81
2021/07/03 09:15:18;;;;;;;8.57;5.90;;;23.70;99.00;;;;;;4958008;29;20050;-81
2021/07/03 09:18:05;;;;;;;6.32;5.30;;;23.40;99.00;;;;;;4953992;28;20122;-81
2021/07/03 09:20:37;;;;;;;6.25;5.05;;;23.30;99.60;;;;;;4945676;28;20035;-82
2021/07/03 09:23:19;;;;;;;7.55;5.53;;;23.10;99.90;;;;;;4923244;29;20458;-80
2021/07/03 09:25:47;;;;;;;7.55;5.97;;;23.10;98.90;;;;;;4924809;29;20039;-82
2021/07/03 09:28:16;;;;;;;7.43;6.00;;;23.00;98.10;;;;;;4921384;29;20082;-81
2021/07/03 09:30:49;;;;;;;5.80;4.72;;;23.00;99.90;;;;;;4939807;28;20039;-82
2021/07/03 09:33:20;;;;;;;7.38;5.10;;;22.90;99.90;;;;;;4956767;28;20031;-81
2021/07/03 09:35:56;;;;;;;6.53;5.20;;;23.00;99.90;;;;;;4953034;28;20031;-81
2021/07/03 09:38:42;;;;;;;8.18;4.72;;;22.80;99.90;;;;;;4943436;28;20126;-80
2021/07/03 09:41:12;;;;;;;7.05;5.30;;;22.70;99.90;;;;;;4946407;28;20340;-79
2021/07/03 09:43:56;;;;;;;7.32;5.07;;;22.60;99.90;;;;;;4958561;29;20035;-81
2021/07/03 09:46:34;;;;;;;6.65;5.35;;;22.50;99.90;;;;;;4940893;29;20059;-81
2021/07/03 09:49:03;;;;;;;6.45;5.05;;;22.40;99.90;;;;;;4960713;28;20098;-81
2021/07/03 09:51:37;;;;;;;6.63;5.20;;;22.30;99.90;;;;;;4941091;28;20145;-82
2021/07/03 09:54:05;;;;;;;6.97;5.38;;;22.40;99.90;;;;;;4958039;29;20035;-79
2021/07/03 09:56:31;;;;;;;6.43;4.60;;;22.30;99.90;;;;;;4956574;28;20192;-80
2021/07/03 09:58:57;;;;;;;7.10;4.30;;;22.30;99.90;;;;;;4939698;28;20054;-79
2021/07/03 10:01:23;;;;;;;6.60;4.93;;;22.30;99.90;;;;;;4960009;28;20028;-80
2021/07/03 10:03:49;;;;;;;6.30;4.70;;;22.30;99.90;;;;;;4937931;28;20118;-81
2021/07/03 10:06:21;;;;;;;6.32;4.80;;;22.30;99.90;;;;;;4958374;28;20038;-80
2021/07/03 10:08:52;;;;;;;8.02;5.30;;;22.20;99.90;;;;;;4942036;28;20028;-79
2021/07/03 10:11:23;;;;;;;6.15;4.95;;;22.10;99.90;;;;;;4934032;28;20127;-82
2021/07/03 10:13:55;;;;;;;6.75;5.10;;;22.20;99.90;;;;;;4921694;29;20509;-80
2021/07/03 10:16:22;;;;;;;6.85;4.32;;;22.20;99.90;;;;;;4939714;29;20078;-80
2021/07/03 10:18:48;;;;;;;6.40;4.88;;;22.20;99.90;;;;;;4936193;28;20085;-80
2021/07/03 10:21:21;;;;;;;6.82;4.80;;;22.20;99.90;;;;;;4957656;28;20032;-80
2021/07/03 10:23:48;;;;;;;5.63;4.78;;;22.20;99.90;;;;;;4952389;28;20039;-80
2021/07/03 10:26:14;;;;;;;4.75;4.22;;;22.10;99.90;;;;;;4956406;29;20478;-79
2021/07/03 10:28:42;;;;;;;5.43;4.53;;;22.00;99.90;;;;;;4957041;28;20066;-81
2021/07/03 10:31:14;;;;;;;5.70;4.50;;;22.00;99.90;;;;;;4951756;28;20032;-80
2021/07/03 10:33:45;;;;;;;5.97;5.03;;;22.10;99.90;;;;;;4953925;28;20051;-79
2021/07/03 10:36:22;;;;;;;6.82;4.50;;;22.30;99.90;;;;;;4951942;28;20075;-80
2021/07/03 10:38:48;;;;;;;5.18;4.65;;;22.60;99.90;;;;;;4954034;28;20038;-79
2021/07/03 10:41:19;;;;;;;9.05;4.65;;;23.00;99.90;;;;;;4933841;29;20035;-79
2021/07/03 10:44:06;;;;;;;7.03;4.40;;;23.30;99.90;;;;;;4961447;28;20051;-79
2021/07/03 10:46:36;;;;;;;6.63;5.07;;;23.40;99.90;;;;;;4928250;29;20028;-79
2021/07/03 10:49:08;;;;;;;7.22;4.68;;;23.60;99.90;;;;;;4939153;29;20039;-79
2021/07/03 10:51:39;;;;;;;5.00;4.28;;;23.60;99.90;;;;;;4947458;28;20509;-79
2021/07/03 10:54:11;;;;;;;7.90;4.50;;;23.60;99.90;;;;;;4956209;28;20397;-79
2021/07/03 10:56:50;;;;;;;6.30;4.18;;;23.50;99.90;;;;;;4953073;29;20031;-80
2021/07/03 10:59:23;;;;;;;9.25;4.60;;;23.40;99.90;;;;;;4952200;28;20056;-79
2021/07/03 11:01:50;;;;;;;5.90;4.53;;;23.40;99.90;;;;;;4951086;29;20030;-80
2021/07/03 11:04:21;;;;;;;6.07;4.57;;;23.40;99.90;;;;;;4949253;28;20490;-79
2021/07/03 11:06:55;;;;;;;5.60;4.30;;;23.50;99.90;;;;;;4952871;28;20445;-79
2021/07/03 11:09:26;;;;;;;5.22;4.43;;;23.50;99.90;;;;;;4951786;28;20054;-78
2021/07/03 11:11:55;;;;;;;5.93;4.15;;;23.60;99.90;;;;;;5009495;22;20045;-82
2021/07/03 11:14:22;;;;;;;4.25;3.53;;;23.70;99.90;;;;;;5009754;28;20044;-82
2021/07/03 11:16:58;;;;;;;3.95;3.47;;;23.70;99.90;;;;;;4986851;28;20037;-84
2021/07/03 11:19:28;;;;;;;4.20;3.78;;;23.80;99.80;;;;;;4995636;28;20084;-83
2021/07/03 11:22:07;;;;;;;4.30;3.83;;;23.90;97.60;;;;;;4987296;28;20030;-81
2021/07/03 11:24:50;;;;;;;4.15;3.63;;;24.00;95.20;;;;;;4986962;28;20034;-83
2021/07/03 11:27:31;;;;;;;5.15;3.75;;;24.00;99.20;;;;;;4970797;28;20608;-83
2021/07/03 11:29:59;;;;;;;6.70;4.15;;;24.20;94.10;;;;;;4967928;28;20482;-83
2021/07/03 11:32:26;;;;;;;5.30;3.60;;;24.30;99.90;;;;;;4982876;28;20023;-82
2021/07/03 11:35:04;;;;;;;5.05;3.92;;;24.40;99.90;;;;;;4972230;28;20428;-81
2021/07/03 11:37:33;;;;;;;4.68;3.45;;;24.60;99.90;;;;;;4979221;28;20153;-82
2021/07/03 11:40:01;;;;;;;5.00;3.90;;;24.80;99.90;;;;;;4970936;28;20778;-85
2021/07/03 11:42:32;;;;;;;4.15;3.75;;;25.10;99.90;;;;;;4970402;28;20106;-81
2021/07/03 11:44:59;;;;;;;3.40;3.10;;;25.50;99.90;;;;;;4970981;28;20510;-81
2021/07/03 11:47:38;;;;;;;4.35;3.92;;;25.70;96.10;;;;;;4963933;28;20027;-82
2021/07/03 11:50:09;;;;;;;3.35;3.00;;;25.80;97.20;;;;;;4970768;28;20038;-81
2021/07/03 11:52:46;;;;;;;4.05;3.38;;;25.60;95.50;;;;;;4985698;28;20026;-84
2021/07/03 11:55:13;;;;;;;4.82;2.83;;;25.60;96.60;;;;;;4982697;28;20031;-85
2021/07/03 11:57:43;;;;;;;4.53;3.35;;;25.60;97.00;;;;;;4990954;28;20054;-83
2021/07/03 12:00:24;;;;;;;4.38;3.65;;;25.50;86.40;;;;;;4977167;28;20107;-81
2021/07/03 12:02:51;;;;;;;3.60;3.25;;;25.30;88.30;;;;;;4957813;28;20050;-80
2021/07/03 12:05:27;;;;;;;3.78;3.17;;;25.40;93.00;;;;;;4990395;28;20047;-80
2021/07/03 12:08:03;;;;;;;4.82;3.25;;;25.70;89.90;;;;;;4988359;28;20030;-80
2021/07/03 12:10:43;;;;;;;3.67;3.25;;;26.10;90.40;;;;;;4992286;28;20026;-84
2021/07/03 12:13:25;;;;;;;5.22;3.40;;;26.50;90.20;;;;;;4983593;28;20022;-81
2021/07/03 12:16:12;;;;;;;4.70;2.95;;;26.60;84.10;;;;;;4992285;28;20038;-82
2021/07/03 12:18:42;;;;;;;3.42;3.13;;;26.70;81.20;;;;;;4979326;28;20026;-82
2021/07/03 12:21:25;;;;;;;3.28;2.90;;;27.10;84.80;;;;;;4990391;28;20125;-81
2021/07/03 12:23:57;;;;;;;4.65;3.30;;;27.30;82.10;;;;;;4987079;28;20113;-81
2021/07/03 12:26:32;;;;;;;5.68;3.65;;;27.30;81.30;;;;;;4990532;28;20026;-81
2021/07/03 12:29:19;;;;;;;5.30;3.17;;;27.60;87.70;;;;;;4993665;28;20070;-84
2021/07/03 12:31:46;;;;;;;2.83;2.55;;;27.70;86.30;;;;;;4970815;28;20030;-81
2021/07/03 12:34:16;;;;;;;3.05;2.67;;;27.90;73.70;;;;;;4994693;28;20080;-80
2021/07/03 12:36:47;;;;;;;3.10;2.80;;;27.80;72.50;;;;;;4976700;28;20818;-82
2021/07/03 12:39:19;;;;;;;3.22;2.33;;;28.00;67.70;;;;;;4991913;28;20066;-81
2021/07/03 12:41:47;;;;;;;2.92;2.47;;;28.20;76.40;;;;;;4972312;28;20026;-82
2021/07/03 12:44:13;;;;;;;3.38;2.58;;;28.50;78.10;;;;;;4946038;28;20062;-80
2021/07/03 12:46:41;;;;;;;3.42;2.72;;;28.60;72.90;;;;;;4994765;28;20107;-81
2021/07/03 12:49:08;;;;;;;3.53;3.00;;;28.90;69.00;;;;;;4975969;28;20031;-81
2021/07/03 12:51:37;;;;;;;3.30;2.70;;;29.10;65.20;;;;;;4973905;28;20054;-81